sensor_id;sensor_type;location;lat;lon;timestamp;temperature;humidity
67054;SHT31;53960;51.826;5.850;2024-02-14T00:01:23;8.48;99.99
67054;SHT31;53960;51.826;5.850;2024-02-14T00:03:48;8.51;99.99
67054;SHT31;53960;51.826;5.850;2024-02-14T00:06:14;8.63;99.99
67054;SHT31;53960;51.826;5.850;2024-02-14T00:08:39;8.65;99.87
67054;SHT31;53960;51.826;5.850;2024-02-14T00:11:04;8.65;99.99
67054;SHT31;53960;51.826;5.850;2024-02-14T00:13:30;8.63;99.99
67054;SHT31;53960;51.826;5.850;2024-02-14T00:15:57;8.60;99.99
67054;SHT31;53960;51.826;5.850;2024-02-14T00:18:22;8.60;99.99
67054;SHT31;53960;51.826;5.850;2024-02-14T00:20:48;8.63;99.99
67054;SHT31;53960;51.826;5.850;2024-02-14T00:23:13;8.63;99.99
67054;SHT31;53960;51.826;5.850;2024-02-14T00:25:38;8.58;99.99
67054;SHT31;53960;51.826;5.850;2024-02-14T00:28:04;8.57;99.99
67054;SHT31;53960;51.826;5.850;2024-02-14T00:30:31;8.57;99.99
67054;SHT31;53960;51.826;5.850;2024-02-14T00:32:56;8.61;99.99
67054;SHT31;53960;51.826;5.850;2024-02-14T00:35:21;8.65;99.99
67054;SHT31;53960;51.826;5.850;2024-02-14T00:37:47;8.63;99.99
67054;SHT31;53960;51.826;5.850;2024-02-14T00:40:12;8.71;99.99
67054;SHT31;53960;51.826;5.850;2024-02-14T00:42:38;8.75;99.99
67054;SHT31;53960;51.826;5.850;2024-02-14T00:45:03;8.71;99.99
67054;SHT31;53960;51.826;5.850;2024-02-14T00:47:32;8.79;99.99
67054;SHT31;53960;51.826;5.850;2024-02-14T00:49:58;8.81;99.99
67054;SHT31;53960;51.826;5.850;2024-02-14T00:52:23;8.74;99.99
67054;SHT31;53960;51.826;5.850;2024-02-14T00:54:49;8.78;99.99
67054;SHT31;53960;51.826;5.850;2024-02-14T00:57:14;8.85;99.99
67054;SHT31;53960;51.826;5.850;2024-02-14T00:59:41;8.92;99.87
67054;SHT31;53960;51.826;5.850;2024-02-14T01:02:06;8.91;99.94
67054;SHT31;53960;51.826;5.850;2024-02-14T01:04:32;8.88;99.96
67054;SHT31;53960;51.826;5.850;2024-02-14T01:06:57;8.92;99.99
67054;SHT31;53960;51.826;5.850;2024-02-14T01:09:23;8.91;99.99
67054;SHT31;53960;51.826;5.850;2024-02-14T01:11:49;8.95;99.99
67054;SHT31;53960;51.826;5.850;2024-02-14T01:14:14;8.98;99.97
67054;SHT31;53960;51.826;5.850;2024-02-14T01:16:43;9.01;99.89
67054;SHT31;53960;51.826;5.850;2024-02-14T01:19:10;8.92;99.99
67054;SHT31;53960;51.826;5.850;2024-02-14T01:21:35;8.96;99.99
67054;SHT31;53960;51.826;5.850;2024-02-14T01:24:00;9.06;99.91
67054;SHT31;53960;51.826;5.850;2024-02-14T01:26:26;9.12;99.77
67054;SHT31;53960;51.826;5.850;2024-02-14T01:28:51;9.14;99.70
67054;SHT31;53960;51.826;5.850;2024-02-14T01:31:16;9.09;99.86
67054;SHT31;53960;51.826;5.850;2024-02-14T01:33:42;9.08;99.94
67054;SHT31;53960;51.826;5.850;2024-02-14T01:36:07;9.04;99.99
67054;SHT31;53960;51.826;5.850;2024-02-14T01:38:32;9.15;99.86
67054;SHT31;53960;51.826;5.850;2024-02-14T01:41:01;9.16;99.92
67054;SHT31;53960;51.826;5.850;2024-02-14T01:43:28;9.16;99.81
67054;SHT31;53960;51.826;5.850;2024-02-14T01:45:53;9.16;99.90
67054;SHT31;53960;51.826;5.850;2024-02-14T01:48:18;9.15;99.99
67054;SHT31;53960;51.826;5.850;2024-02-14T01:50:44;9.22;99.87
67054;SHT31;53960;51.826;5.850;2024-02-14T01:53:11;9.20;99.82
67054;SHT31;53960;51.826;5.850;2024-02-14T01:55:37;9.23;99.81
67054;SHT31;53960;51.826;5.850;2024-02-14T01:58:02;9.27;99.87
67054;SHT31;53960;51.826;5.850;2024-02-14T02:00:30;9.32;99.70
67054;SHT31;53960;51.826;5.850;2024-02-14T02:02:56;9.23;99.96
67054;SHT31;53960;51.826;5.850;2024-02-14T02:05:22;9.26;99.99
67054;SHT31;53960;51.826;5.850;2024-02-14T02:07:48;9.29;99.91
67054;SHT31;53960;51.826;5.850;2024-02-14T02:10:14;9.26;99.98
67054;SHT31;53960;51.826;5.850;2024-02-14T02:12:39;9.33;99.88
67054;SHT31;53960;51.826;5.850;2024-02-14T02:15:08;9.37;99.70
67054;SHT31;53960;51.826;5.850;2024-02-14T02:17:39;9.37;99.62
67054;SHT31;53960;51.826;5.850;2024-02-14T02:20:07;9.32;99.83
67054;SHT31;53960;51.826;5.850;2024-02-14T02:22:34;9.39;99.71
67054;SHT31;53960;51.826;5.850;2024-02-14T02:25:02;9.36;99.66
67054;SHT31;53960;51.826;5.850;2024-02-14T02:27:27;9.42;99.65
67054;SHT31;53960;51.826;5.850;2024-02-14T02:29:52;9.44;99.69
67054;SHT31;53960;51.826;5.850;2024-02-14T02:32:18;9.48;99.65
67054;SHT31;53960;51.826;5.850;2024-02-14T02:34:43;9.43;99.87
67054;SHT31;53960;51.826;5.850;2024-02-14T02:37:10;9.42;99.99
67054;SHT31;53960;51.826;5.850;2024-02-14T02:39:36;9.46;99.99
67054;SHT31;53960;51.826;5.850;2024-02-14T02:42:02;9.40;99.99
67054;SHT31;53960;51.826;5.850;2024-02-14T02:44:28;9.40;99.99
67054;SHT31;53960;51.826;5.850;2024-02-14T02:46:53;9.39;99.99
67054;SHT31;53960;51.826;5.850;2024-02-14T02:49:18;9.46;99.99
67054;SHT31;53960;51.826;5.850;2024-02-14T02:51:44;9.47;99.99
67054;SHT31;53960;51.826;5.850;2024-02-14T02:54:09;9.50;99.99
67054;SHT31;53960;51.826;5.850;2024-02-14T02:56:36;9.51;99.99
67054;SHT31;53960;51.826;5.850;2024-02-14T02:59:01;9.48;99.99
67054;SHT31;53960;51.826;5.850;2024-02-14T03:01:28;9.48;99.99
67054;SHT31;53960;51.826;5.850;2024-02-14T03:03:56;9.54;99.99
67054;SHT31;53960;51.826;5.850;2024-02-14T03:06:22;9.50;99.99
67054;SHT31;53960;51.826;5.850;2024-02-14T03:08:48;9.51;99.99
67054;SHT31;53960;51.826;5.850;2024-02-14T03:11:15;9.58;99.99
67054;SHT31;53960;51.826;5.850;2024-02-14T03:13:40;9.57;99.99
67054;SHT31;53960;51.826;5.850;2024-02-14T03:16:06;9.57;99.99
67054;SHT31;53960;51.826;5.850;2024-02-14T03:18:32;9.56;99.99
67054;SHT31;53960;51.826;5.850;2024-02-14T03:20:58;9.58;99.99
67054;SHT31;53960;51.826;5.850;2024-02-14T03:23:23;9.57;99.99
67054;SHT31;53960;51.826;5.850;2024-02-14T03:25:48;9.56;99.99
67054;SHT31;53960;51.826;5.850;2024-02-14T03:28:14;9.57;99.99
67054;SHT31;53960;51.826;5.850;2024-02-14T03:30:39;9.56;99.99
67054;SHT31;53960;51.826;5.850;2024-02-14T03:33:05;9.58;99.99
67054;SHT31;53960;51.826;5.850;2024-02-14T03:35:33;9.66;99.99
67054;SHT31;53960;51.826;5.850;2024-02-14T03:38:00;9.64;99.99
67054;SHT31;53960;51.826;5.850;2024-02-14T03:40:26;9.67;99.99
67054;SHT31;53960;51.826;5.850;2024-02-14T03:42:52;9.64;99.99
67054;SHT31;53960;51.826;5.850;2024-02-14T03:45:18;9.63;99.99
67054;SHT31;53960;51.826;5.850;2024-02-14T03:47:44;9.71;99.99
67054;SHT31;53960;51.826;5.850;2024-02-14T03:50:09;9.74;99.99
67054;SHT31;53960;51.826;5.850;2024-02-14T03:52:34;9.73;99.99
67054;SHT31;53960;51.826;5.850;2024-02-14T03:55:00;9.71;99.99
67054;SHT31;53960;51.826;5.850;2024-02-14T03:57:26;9.80;99.99
67054;SHT31;53960;51.826;5.850;2024-02-14T03:59:54;9.80;99.99
67054;SHT31;53960;51.826;5.850;2024-02-14T04:02:20;9.75;99.99
67054;SHT31;53960;51.826;5.850;2024-02-14T04:04:45;9.80;99.99
67054;SHT31;53960;51.826;5.850;2024-02-14T04:07:12;9.78;99.99
67054;SHT31;53960;51.826;5.850;2024-02-14T04:09:37;9.85;99.99
67054;SHT31;53960;51.826;5.850;2024-02-14T04:12:03;9.84;99.99
67054;SHT31;53960;51.826;5.850;2024-02-14T04:14:28;9.83;99.99
67054;SHT31;53960;51.826;5.850;2024-02-14T04:16:54;9.90;99.99
67054;SHT31;53960;51.826;5.850;2024-02-14T04:19:19;9.97;99.99
67054;SHT31;53960;51.826;5.850;2024-02-14T04:21:45;9.97;99.99
67054;SHT31;53960;51.826;5.850;2024-02-14T04:24:11;9.97;99.99
67054;SHT31;53960;51.826;5.850;2024-02-14T04:26:36;9.97;99.99
67054;SHT31;53960;51.826;5.850;2024-02-14T04:29:02;9.93;99.99
67054;SHT31;53960;51.826;5.850;2024-02-14T04:31:27;9.90;99.99
67054;SHT31;53960;51.826;5.850;2024-02-14T04:33:55;9.95;99.99
67054;SHT31;53960;51.826;5.850;2024-02-14T04:36:20;10.04;99.99
67054;SHT31;53960;51.826;5.850;2024-02-14T04:38:48;9.98;99.99
67054;SHT31;53960;51.826;5.850;2024-02-14T04:41:14;10.01;99.99
67054;SHT31;53960;51.826;5.850;2024-02-14T04:43:39;10.06;99.99
67054;SHT31;53960;51.826;5.850;2024-02-14T04:46:05;10.04;99.99
67054;SHT31;53960;51.826;5.850;2024-02-14T04:48:32;10.01;99.99
67054;SHT31;53960;51.826;5.850;2024-02-14T04:50:58;10.02;99.99
67054;SHT31;53960;51.826;5.850;2024-02-14T04:53:23;10.02;99.99
67054;SHT31;53960;51.826;5.850;2024-02-14T04:55:49;10.04;99.99
67054;SHT31;53960;51.826;5.850;2024-02-14T04:58:14;10.05;99.99
67054;SHT31;53960;51.826;5.850;2024-02-14T05:00:39;10.04;99.99
67054;SHT31;53960;51.826;5.850;2024-02-14T05:03:05;10.02;99.99
67054;SHT31;53960;51.826;5.850;2024-02-14T05:05:30;10.09;99.99
67054;SHT31;53960;51.826;5.850;2024-02-14T05:07:58;10.11;99.99
67054;SHT31;53960;51.826;5.850;2024-02-14T05:10:23;10.11;99.99
67054;SHT31;53960;51.826;5.850;2024-02-14T05:12:49;10.08;99.99
67054;SHT31;53960;51.826;5.850;2024-02-14T05:15:15;10.08;99.99
67054;SHT31;53960;51.826;5.850;2024-02-14T05:17:42;10.09;99.99
67054;SHT31;53960;51.826;5.850;2024-02-14T05:20:08;10.05;99.99
67054;SHT31;53960;51.826;5.850;2024-02-14T05:22:35;10.09;99.99
67054;SHT31;53960;51.826;5.850;2024-02-14T05:25:01;10.09;99.99
67054;SHT31;53960;51.826;5.850;2024-02-14T05:27:26;10.08;99.99
67054;SHT31;53960;51.826;5.850;2024-02-14T05:29:52;10.05;99.99
67054;SHT31;53960;51.826;5.850;2024-02-14T05:32:17;10.05;99.99
67054;SHT31;53960;51.826;5.850;2024-02-14T05:34:42;10.05;99.99
67054;SHT31;53960;51.826;5.850;2024-02-14T05:37:08;10.04;99.99
67054;SHT31;53960;51.826;5.850;2024-02-14T05:39:33;10.05;99.99
67054;SHT31;53960;51.826;5.850;2024-02-14T05:41:59;9.99;99.99
67054;SHT31;53960;51.826;5.850;2024-02-14T05:44:24;10.04;99.99
67054;SHT31;53960;51.826;5.850;2024-02-14T05:46:52;10.09;99.99
67054;SHT31;53960;51.826;5.850;2024-02-14T05:49:17;10.05;99.99
67054;SHT31;53960;51.826;5.850;2024-02-14T05:51:43;9.99;99.99
67054;SHT31;53960;51.826;5.850;2024-02-14T05:54:08;10.04;99.99
67054;SHT31;53960;51.826;5.850;2024-02-14T05:56:34;10.08;99.99
67054;SHT31;53960;51.826;5.850;2024-02-14T05:59:00;10.09;99.99
67054;SHT31;53960;51.826;5.850;2024-02-14T06:01:25;10.01;99.99
67054;SHT31;53960;51.826;5.850;2024-02-14T06:03:51;10.01;99.99
67054;SHT31;53960;51.826;5.850;2024-02-14T06:06:16;10.05;99.99
67054;SHT31;53960;51.826;5.850;2024-02-14T06:08:41;10.02;99.99
67054;SHT31;53960;51.826;5.850;2024-02-14T06:11:07;10.09;99.99
67054;SHT31;53960;51.826;5.850;2024-02-14T06:13:33;10.12;99.99
67054;SHT31;53960;51.826;5.850;2024-02-14T06:15:58;10.11;99.99
67054;SHT31;53960;51.826;5.850;2024-02-14T06:18:24;10.06;99.99
67054;SHT31;53960;51.826;5.850;2024-02-14T06:20:49;10.06;99.99
67054;SHT31;53960;51.826;5.850;2024-02-14T06:23:14;10.05;99.99
67054;SHT31;53960;51.826;5.850;2024-02-14T06:25:40;10.01;99.99
67054;SHT31;53960;51.826;5.850;2024-02-14T06:28:05;10.05;99.99
67054;SHT31;53960;51.826;5.850;2024-02-14T06:30:30;9.99;99.99
67054;SHT31;53960;51.826;5.850;2024-02-14T06:32:56;10.05;99.99
67054;SHT31;53960;51.826;5.850;2024-02-14T06:35:25;10.08;99.99
67054;SHT31;53960;51.826;5.850;2024-02-14T06:37:50;10.08;99.99
67054;SHT31;53960;51.826;5.850;2024-02-14T06:40:16;10.06;99.99
67054;SHT31;53960;51.826;5.850;2024-02-14T06:42:41;10.05;99.99
67054;SHT31;53960;51.826;5.850;2024-02-14T06:45:07;10.08;99.99
67054;SHT31;53960;51.826;5.850;2024-02-14T06:47:32;10.04;99.99
67054;SHT31;53960;51.826;5.850;2024-02-14T06:49:57;10.09;99.99
67054;SHT31;53960;51.826;5.850;2024-02-14T06:52:23;10.09;99.99
67054;SHT31;53960;51.826;5.850;2024-02-14T06:54:49;10.14;99.99
67054;SHT31;53960;51.826;5.850;2024-02-14T06:57:14;10.08;99.99
67054;SHT31;53960;51.826;5.850;2024-02-14T06:59:39;10.12;99.99
67054;SHT31;53960;51.826;5.850;2024-02-14T07:02:05;10.11;99.99
67054;SHT31;53960;51.826;5.850;2024-02-14T07:04:31;10.11;99.99
67054;SHT31;53960;51.826;5.850;2024-02-14T07:06:56;10.15;99.99
67054;SHT31;53960;51.826;5.850;2024-02-14T07:09:22;10.12;99.99
67054;SHT31;53960;51.826;5.850;2024-02-14T07:11:47;10.12;99.99
67054;SHT31;53960;51.826;5.850;2024-02-14T07:14:12;10.14;99.99
67054;SHT31;53960;51.826;5.850;2024-02-14T07:16:38;10.18;99.99
67054;SHT31;53960;51.826;5.850;2024-02-14T07:19:03;10.18;99.99
67054;SHT31;53960;51.826;5.850;2024-02-14T07:21:29;10.18;99.99
67054;SHT31;53960;51.826;5.850;2024-02-14T07:23:54;10.21;99.99
67054;SHT31;53960;51.826;5.850;2024-02-14T07:26:19;10.24;99.99
67054;SHT31;53960;51.826;5.850;2024-02-14T07:28:45;10.28;99.99
67054;SHT31;53960;51.826;5.850;2024-02-14T07:31:11;10.29;99.99
67054;SHT31;53960;51.826;5.850;2024-02-14T07:33:36;10.31;99.99
67054;SHT31;53960;51.826;5.850;2024-02-14T07:36:01;10.28;99.99
67054;SHT31;53960;51.826;5.850;2024-02-14T07:38:27;10.26;99.99
67054;SHT31;53960;51.826;5.850;2024-02-14T07:40:52;10.29;99.99
67054;SHT31;53960;51.826;5.850;2024-02-14T07:43:18;10.29;99.99
67054;SHT31;53960;51.826;5.850;2024-02-14T07:45:43;10.29;99.99
67054;SHT31;53960;51.826;5.850;2024-02-14T07:48:08;10.34;99.99
67054;SHT31;53960;51.826;5.850;2024-02-14T07:50:33;10.36;99.99
67054;SHT31;53960;51.826;5.850;2024-02-14T07:52:59;10.36;99.99
67054;SHT31;53960;51.826;5.850;2024-02-14T07:55:24;10.35;99.99
67054;SHT31;53960;51.826;5.850;2024-02-14T07:57:49;10.36;99.99
67054;SHT31;53960;51.826;5.850;2024-02-14T08:00:15;10.36;99.99
67054;SHT31;53960;51.826;5.850;2024-02-14T08:02:48;10.41;99.99
67054;SHT31;53960;51.826;5.850;2024-02-14T08:05:13;10.42;99.99
67054;SHT31;53960;51.826;5.850;2024-02-14T08:07:38;10.42;99.99
67054;SHT31;53960;51.826;5.850;2024-02-14T08:10:04;10.41;99.99
67054;SHT31;53960;51.826;5.850;2024-02-14T08:12:30;10.46;99.99
67054;SHT31;53960;51.826;5.850;2024-02-14T08:14:55;10.42;99.99
67054;SHT31;53960;51.826;5.850;2024-02-14T08:17:21;10.49;99.99
67054;SHT31;53960;51.826;5.850;2024-02-14T08:19:46;10.49;99.99
67054;SHT31;53960;51.826;5.850;2024-02-14T08:22:13;10.41;99.99
67054;SHT31;53960;51.826;5.850;2024-02-14T08:24:38;10.46;99.99
67054;SHT31;53960;51.826;5.850;2024-02-14T08:27:04;10.50;99.99
67054;SHT31;53960;51.826;5.850;2024-02-14T08:29:32;10.48;99.99
67054;SHT31;53960;51.826;5.850;2024-02-14T08:31:57;10.53;99.99
67054;SHT31;53960;51.826;5.850;2024-02-14T08:34:22;10.53;99.99
67054;SHT31;53960;51.826;5.850;2024-02-14T08:36:47;10.50;99.99
67054;SHT31;53960;51.826;5.850;2024-02-14T08:39:13;10.52;99.99
67054;SHT31;53960;51.826;5.850;2024-02-14T08:41:39;10.55;99.99
67054;SHT31;53960;51.826;5.850;2024-02-14T08:44:08;10.52;99.99
67054;SHT31;53960;51.826;5.850;2024-02-14T08:46:33;10.50;99.99
67054;SHT31;53960;51.826;5.850;2024-02-14T08:49:02;10.53;99.99
67054;SHT31;53960;51.826;5.850;2024-02-14T08:51:30;10.56;99.99
67054;SHT31;53960;51.826;5.850;2024-02-14T08:53:55;10.60;99.99
67054;SHT31;53960;51.826;5.850;2024-02-14T08:56:24;10.64;99.99
67054;SHT31;53960;51.826;5.850;2024-02-14T08:58:50;10.66;99.99
67054;SHT31;53960;51.826;5.850;2024-02-14T09:01:15;10.66;99.99
67054;SHT31;53960;51.826;5.850;2024-02-14T09:03:44;10.64;99.99
67054;SHT31;53960;51.826;5.850;2024-02-14T09:06:16;10.63;99.99
67054;SHT31;53960;51.826;5.850;2024-02-14T09:08:43;10.67;99.99
67054;SHT31;53960;51.826;5.850;2024-02-14T09:11:08;10.62;99.99
67054;SHT31;53960;51.826;5.850;2024-02-14T09:13:34;10.70;99.99
67054;SHT31;53960;51.826;5.850;2024-02-14T09:15:59;10.66;99.99
67054;SHT31;53960;51.826;5.850;2024-02-14T09:18:25;10.70;99.99
67054;SHT31;53960;51.826;5.850;2024-02-14T09:20:50;10.69;99.99
67054;SHT31;53960;51.826;5.850;2024-02-14T09:23:16;10.73;99.99
67054;SHT31;53960;51.826;5.850;2024-02-14T09:25:46;10.67;99.99
67054;SHT31;53960;51.826;5.850;2024-02-14T09:28:12;10.73;99.99
67054;SHT31;53960;51.826;5.850;2024-02-14T09:30:39;10.74;99.99
67054;SHT31;53960;51.826;5.850;2024-02-14T09:33:04;10.74;99.99
67054;SHT31;53960;51.826;5.850;2024-02-14T09:35:30;10.74;99.99
67054;SHT31;53960;51.826;5.850;2024-02-14T09:37:56;10.79;99.99
67054;SHT31;53960;51.826;5.850;2024-02-14T09:40:21;10.80;99.99
67054;SHT31;53960;51.826;5.850;2024-02-14T09:42:56;10.89;99.99
67054;SHT31;53960;51.826;5.850;2024-02-14T09:45:26;10.84;99.99
67054;SHT31;53960;51.826;5.850;2024-02-14T09:47:53;10.87;99.99
67054;SHT31;53960;51.826;5.850;2024-02-14T09:50:19;10.92;99.99
67054;SHT31;53960;51.826;5.850;2024-02-14T09:52:47;10.87;99.99
67054;SHT31;53960;51.826;5.850;2024-02-14T09:55:14;10.92;99.99
67054;SHT31;53960;51.826;5.850;2024-02-14T09:57:41;10.85;99.99
67054;SHT31;53960;51.826;5.850;2024-02-14T10:00:10;10.89;99.99
67054;SHT31;53960;51.826;5.850;2024-02-14T10:02:35;10.92;99.99
67054;SHT31;53960;51.826;5.850;2024-02-14T10:05:01;10.92;99.99
67054;SHT31;53960;51.826;5.850;2024-02-14T10:07:26;10.97;99.99
67054;SHT31;53960;51.826;5.850;2024-02-14T10:09:52;10.93;99.99
67054;SHT31;53960;51.826;5.850;2024-02-14T10:12:19;11.10;99.99
67054;SHT31;53960;51.826;5.850;2024-02-14T10:14:44;11.06;99.99
67054;SHT31;53960;51.826;5.850;2024-02-14T10:17:20;11.10;99.99
67054;SHT31;53960;51.826;5.850;2024-02-14T10:19:58;11.07;99.99
67054;SHT31;53960;51.826;5.850;2024-02-14T10:22:24;11.13;99.99
67054;SHT31;53960;51.826;5.850;2024-02-14T10:24:50;11.08;99.99
67054;SHT31;53960;51.826;5.850;2024-02-14T10:27:15;11.11;99.99
67054;SHT31;53960;51.826;5.850;2024-02-14T10:29:40;11.17;99.99
67054;SHT31;53960;51.826;5.850;2024-02-14T10:32:07;11.25;99.99
67054;SHT31;53960;51.826;5.850;2024-02-14T10:34:33;11.32;99.99
67054;SHT31;53960;51.826;5.850;2024-02-14T10:37:00;11.34;99.99
67054;SHT31;53960;51.826;5.850;2024-02-14T10:39:26;11.36;99.99
67054;SHT31;53960;51.826;5.850;2024-02-14T10:41:52;11.39;99.99
67054;SHT31;53960;51.826;5.850;2024-02-14T10:44:17;11.39;99.99
67054;SHT31;53960;51.826;5.850;2024-02-14T10:46:44;11.45;99.99
67054;SHT31;53960;51.826;5.850;2024-02-14T10:49:12;11.46;99.99
67054;SHT31;53960;51.826;5.850;2024-02-14T10:51:41;11.54;99.99
67054;SHT31;53960;51.826;5.850;2024-02-14T10:54:10;11.54;99.99
67054;SHT31;53960;51.826;5.850;2024-02-14T10:56:40;11.54;99.99
67054;SHT31;53960;51.826;5.850;2024-02-14T10:59:08;11.52;99.99
67054;SHT31;53960;51.826;5.850;2024-02-14T11:01:35;11.54;99.99
67054;SHT31;53960;51.826;5.850;2024-02-14T11:04:02;11.62;99.99
67054;SHT31;53960;51.826;5.850;2024-02-14T11:06:29;11.55;99.99
67054;SHT31;53960;51.826;5.850;2024-02-14T11:09:00;11.58;99.99
67054;SHT31;53960;51.826;5.850;2024-02-14T11:11:28;11.61;99.99
67054;SHT31;53960;51.826;5.850;2024-02-14T11:13:55;11.65;99.99
67054;SHT31;53960;51.826;5.850;2024-02-14T11:16:28;11.55;99.99
67054;SHT31;53960;51.826;5.850;2024-02-14T11:19:05;11.58;99.99
67054;SHT31;53960;51.826;5.850;2024-02-14T11:21:35;11.62;99.99
67054;SHT31;53960;51.826;5.850;2024-02-14T11:24:04;11.62;99.99
67054;SHT31;53960;51.826;5.850;2024-02-14T11:26:38;11.65;99.99
67054;SHT31;53960;51.826;5.850;2024-02-14T11:29:03;11.69;99.99
67054;SHT31;53960;51.826;5.850;2024-02-14T11:31:35;11.66;99.99
67054;SHT31;53960;51.826;5.850;2024-02-14T11:34:04;11.71;99.99
67054;SHT31;53960;51.826;5.850;2024-02-14T11:36:31;11.73;99.99
67054;SHT31;53960;51.826;5.850;2024-02-14T11:38:57;11.73;99.99
67054;SHT31;53960;51.826;5.850;2024-02-14T11:41:22;11.79;99.99
67054;SHT31;53960;51.826;5.850;2024-02-14T11:43:51;11.76;99.99
67054;SHT31;53960;51.826;5.850;2024-02-14T11:46:17;11.82;99.99
67054;SHT31;53960;51.826;5.850;2024-02-14T11:48:43;11.82;99.99
67054;SHT31;53960;51.826;5.850;2024-02-14T11:51:11;11.79;99.99
67054;SHT31;53960;51.826;5.850;2024-02-14T11:53:36;11.83;99.99
67054;SHT31;53960;51.826;5.850;2024-02-14T11:56:02;11.87;99.99
67054;SHT31;53960;51.826;5.850;2024-02-14T11:58:27;11.79;99.99
67054;SHT31;53960;51.826;5.850;2024-02-14T12:00:53;11.82;99.99
67054;SHT31;53960;51.826;5.850;2024-02-14T12:03:20;11.79;99.99
67054;SHT31;53960;51.826;5.850;2024-02-14T12:05:50;11.78;99.99
67054;SHT31;53960;51.826;5.850;2024-02-14T12:08:16;11.79;99.99
67054;SHT31;53960;51.826;5.850;2024-02-14T12:10:45;11.79;99.99
67054;SHT31;53960;51.826;5.850;2024-02-14T12:13:16;11.81;99.99
67054;SHT31;53960;51.826;5.850;2024-02-14T12:15:45;11.76;99.99
67054;SHT31;53960;51.826;5.850;2024-02-14T12:18:11;11.81;99.99
67054;SHT31;53960;51.826;5.850;2024-02-14T12:20:39;11.81;99.99
67054;SHT31;53960;51.826;5.850;2024-02-14T12:23:05;11.78;99.99
67054;SHT31;53960;51.826;5.850;2024-02-14T12:25:31;11.76;99.99
67054;SHT31;53960;51.826;5.850;2024-02-14T12:27:57;11.75;99.99
67054;SHT31;53960;51.826;5.850;2024-02-14T12:30:50;11.72;99.99
67054;SHT31;53960;51.826;5.850;2024-02-14T12:33:21;11.69;99.99
67054;SHT31;53960;51.826;5.850;2024-02-14T12:35:49;11.69;99.99
67054;SHT31;53960;51.826;5.850;2024-02-14T12:38:16;11.68;99.99
67054;SHT31;53960;51.826;5.850;2024-02-14T12:40:42;11.76;99.99
67054;SHT31;53960;51.826;5.850;2024-02-14T12:43:08;11.76;99.99
67054;SHT31;53960;51.826;5.850;2024-02-14T12:45:34;11.79;99.99
67054;SHT31;53960;51.826;5.850;2024-02-14T12:48:00;11.71;99.99
67054;SHT31;53960;51.826;5.850;2024-02-14T12:50:25;11.75;99.99
67054;SHT31;53960;51.826;5.850;2024-02-14T12:52:51;11.71;99.99
67054;SHT31;53960;51.826;5.850;2024-02-14T12:55:16;11.73;99.99
67054;SHT31;53960;51.826;5.850;2024-02-14T12:57:43;11.72;99.99
67054;SHT31;53960;51.826;5.850;2024-02-14T13:00:09;11.69;99.99
67054;SHT31;53960;51.826;5.850;2024-02-14T13:02:35;11.63;99.99
67054;SHT31;53960;51.826;5.850;2024-02-14T13:05:00;11.66;99.99
67054;SHT31;53960;51.826;5.850;2024-02-14T13:07:27;11.68;99.99
67054;SHT31;53960;51.826;5.850;2024-02-14T13:09:53;11.68;99.99
67054;SHT31;53960;51.826;5.850;2024-02-14T13:12:18;11.69;99.99
67054;SHT31;53960;51.826;5.850;2024-02-14T13:14:43;11.65;99.99
67054;SHT31;53960;51.826;5.850;2024-02-14T13:17:09;11.69;99.99
67054;SHT31;53960;51.826;5.850;2024-02-14T13:19:36;11.65;99.99
67054;SHT31;53960;51.826;5.850;2024-02-14T13:22:01;11.75;99.99
67054;SHT31;53960;51.826;5.850;2024-02-14T13:24:27;11.72;99.99
67054;SHT31;53960;51.826;5.850;2024-02-14T13:26:53;11.72;99.99
67054;SHT31;53960;51.826;5.850;2024-02-14T13:29:19;11.68;99.99
67054;SHT31;53960;51.826;5.850;2024-02-14T13:31:44;11.71;99.99
67054;SHT31;53960;51.826;5.850;2024-02-14T13:34:10;11.72;99.99
67054;SHT31;53960;51.826;5.850;2024-02-14T13:36:37;11.73;99.99
67054;SHT31;53960;51.826;5.850;2024-02-14T13:39:02;11.75;99.99
67054;SHT31;53960;51.826;5.850;2024-02-14T13:41:28;11.81;99.99
67054;SHT31;53960;51.826;5.850;2024-02-14T13:43:53;11.75;99.99
67054;SHT31;53960;51.826;5.850;2024-02-14T13:46:19;11.73;99.99
67054;SHT31;53960;51.826;5.850;2024-02-14T13:48:44;11.78;99.99
67054;SHT31;53960;51.826;5.850;2024-02-14T13:51:10;11.79;99.99
67054;SHT31;53960;51.826;5.850;2024-02-14T13:53:35;11.81;99.99
67054;SHT31;53960;51.826;5.850;2024-02-14T13:56:01;11.85;99.99
67054;SHT31;53960;51.826;5.850;2024-02-14T13:58:26;11.82;99.99
67054;SHT31;53960;51.826;5.850;2024-02-14T14:00:51;11.82;99.99
67054;SHT31;53960;51.826;5.850;2024-02-14T14:03:17;11.81;99.99
67054;SHT31;53960;51.826;5.850;2024-02-14T14:05:43;11.83;99.99
67054;SHT31;53960;51.826;5.850;2024-02-14T14:08:09;11.89;99.99
67054;SHT31;53960;51.826;5.850;2024-02-14T14:10:34;11.85;99.99
67054;SHT31;53960;51.826;5.850;2024-02-14T14:12:59;11.87;99.99
67054;SHT31;53960;51.826;5.850;2024-02-14T14:15:25;11.90;99.99
67054;SHT31;53960;51.826;5.850;2024-02-14T14:17:51;11.90;99.99
67054;SHT31;53960;51.826;5.850;2024-02-14T14:20:17;11.92;99.99
67054;SHT31;53960;51.826;5.850;2024-02-14T14:22:43;11.93;99.99
67054;SHT31;53960;51.826;5.850;2024-02-14T14:25:08;11.93;99.99
67054;SHT31;53960;51.826;5.850;2024-02-14T14:27:34;11.92;99.99
67054;SHT31;53960;51.826;5.850;2024-02-14T14:30:00;11.92;99.99
67054;SHT31;53960;51.826;5.850;2024-02-14T14:32:25;11.92;99.99
67054;SHT31;53960;51.826;5.850;2024-02-14T14:34:50;11.92;99.99
67054;SHT31;53960;51.826;5.850;2024-02-14T14:37:15;11.92;99.99
67054;SHT31;53960;51.826;5.850;2024-02-14T14:39:41;11.92;99.99
67054;SHT31;53960;51.826;5.850;2024-02-14T14:42:07;11.96;99.99
67054;SHT31;53960;51.826;5.850;2024-02-14T14:44:33;12.03;99.99
67054;SHT31;53960;51.826;5.850;2024-02-14T14:46:59;11.97;99.99
67054;SHT31;53960;51.826;5.850;2024-02-14T14:49:25;11.99;99.99
67054;SHT31;53960;51.826;5.850;2024-02-14T14:51:51;12.02;99.99
67054;SHT31;53960;51.826;5.850;2024-02-14T14:54:16;11.99;99.99
67054;SHT31;53960;51.826;5.850;2024-02-14T14:56:43;11.96;99.99
67054;SHT31;53960;51.826;5.850;2024-02-14T14:59:08;12.02;99.99
67054;SHT31;53960;51.826;5.850;2024-02-14T15:01:34;12.03;99.99
67054;SHT31;53960;51.826;5.850;2024-02-14T15:04:00;12.03;99.99
67054;SHT31;53960;51.826;5.850;2024-02-14T15:06:26;12.02;99.99
67054;SHT31;53960;51.826;5.850;2024-02-14T15:08:51;12.00;99.99
67054;SHT31;53960;51.826;5.850;2024-02-14T15:11:17;12.00;99.99
67054;SHT31;53960;51.826;5.850;2024-02-14T15:13:45;12.00;99.99
67054;SHT31;53960;51.826;5.850;2024-02-14T15:16:11;12.06;99.99
67054;SHT31;53960;51.826;5.850;2024-02-14T15:18:38;12.06;99.99
67054;SHT31;53960;51.826;5.850;2024-02-14T15:21:03;12.02;99.99
67054;SHT31;53960;51.826;5.850;2024-02-14T15:23:28;12.03;99.99
67054;SHT31;53960;51.826;5.850;2024-02-14T15:25:54;12.04;99.99
67054;SHT31;53960;51.826;5.850;2024-02-14T15:28:28;12.06;99.99